Time;durP1;ratioP1;P1;durP2;ratioP2;P2;SDS_P1;SDS_P2;PMS_P1;PMS_P2;Temp;Humidity;BMP_temperature;BMP_pressure;BME280_temperature;BME280_humidity;BME280_pressure;Samples;Min_cycle;Max_cycle;Signal;HPM_P1;HPM_P2
2022/08/25 00:00:59;;;;;;;;;11.33;10.33;;;;;24.73;67.08;100376.78;5031187;28;45532;-74
2022/08/25 00:03:25;;;;;;;;;9.00;8.33;;;;;24.95;66.66;100397.47;5027554;28;48608;-74
2022/08/25 00:05:50;;;;;;;;;9.00;9.00;;;;;25.02;67.03;100409.72;5029958;28;45291;-73
2022/08/25 00:08:16;;;;;;;;;8.00;6.33;;;;;25.00;66.69;100414.22;5024190;28;45427;-74
2022/08/25 00:10:41;;;;;;;;;8.00;8.00;;;;;24.85;66.35;100383.53;5030966;28;45419;-74
2022/08/25 00:13:07;;;;;;;;;9.67;9.00;;;;;24.91;66.14;100395.81;5030389;28;46251;-72
2022/08/25 00:15:33;;;;;;;;;10.33;9.67;;;;;24.88;66.07;100386.09;5028622;28;45378;-73
2022/08/25 00:17:59;;;;;;;;;10.00;10.00;;;;;24.94;66.65;100403.75;5028733;28;45331;-73
2022/08/25 00:20:26;;;;;;;;;10.00;10.00;;;;;24.86;66.14;100382.59;5021585;28;45509;-73
2022/08/25 00:22:52;;;;;;;;;10.00;9.00;;;;;24.91;66.29;100386.00;5027659;28;45541;-75
2022/08/25 00:25:18;;;;;;;;;10.00;9.67;;;;;24.93;66.98;100392.19;5013719;28;45696;-73
2022/08/25 00:27:46;;;;;;;;;9.67;9.33;;;;;24.93;66.26;100389.50;5013481;28;45643;-73
2022/08/25 00:30:13;;;;;;;;;11.00;9.33;;;;;24.83;66.81;100363.13;5011571;28;45554;-74
2022/08/25 00:32:39;;;;;;;;;12.67;11.00;;;;;24.85;66.67;100379.97;5010969;28;45445;-74
2022/08/25 00:35:05;;;;;;;;;13.00;10.67;;;;;24.76;66.70;100368.66;5023981;28;45464;-74
2022/08/25 00:37:31;;;;;;;;;10.00;10.00;;;;;24.79;66.69;100367.72;5029237;28;45507;-73
2022/08/25 00:39:57;;;;;;;;;11.00;10.00;;;;;24.73;66.49;100371.44;5031594;28;45786;-76
2022/08/25 00:42:24;;;;;;;;;10.00;10.00;;;;;24.68;66.84;100357.34;5025429;28;45525;-74
2022/08/25 00:44:49;;;;;;;;;11.00;11.00;;;;;24.86;66.60;100376.41;5020333;28;45455;-73
2022/08/25 00:47:15;;;;;;;;;12.67;12.33;;;;;24.81;66.88;100389.91;5028123;28;45486;-74
2022/08/25 00:49:58;;;;;;;;;12.00;10.33;;;;;24.81;66.61;100389.91;5017912;28;45305;-73
2022/08/25 00:52:32;;;;;;;;;11.00;11.00;;;;;24.88;65.92;100399.47;5012652;28;46647;-72
2022/08/25 00:55:00;;;;;;;;;10.00;10.00;;;;;24.81;66.31;100384.56;5011422;28;45440;-72
2022/08/25 00:57:33;;;;;;;;;10.67;10.00;;;;;24.75;66.48;100380.28;5021523;28;45498;-73
2022/08/25 00:59:59;;;;;;;;;12.00;10.67;;;;;24.71;66.34;100381.31;5014323;28;45459;-74
2022/08/25 01:02:25;;;;;;;;;12.33;11.00;;;;;24.62;66.26;100346.84;5016200;28;45453;-77
2022/08/25 01:04:50;;;;;;;;;13.00;11.00;;;;;24.86;66.34;100373.72;5014770;28;45465;-76
2022/08/25 01:07:21;;;;;;;;;10.67;10.33;;;;;24.86;66.58;100374.59;5003354;28;45467;-75
2022/08/25 01:09:48;;;;;;;;;9.33;9.33;;;;;24.81;66.81;100357.84;5031621;28;45389;-74
2022/08/25 01:12:15;;;;;;;;;9.00;9.00;;;;;24.80;66.52;100332.91;5015873;28;45641;-75
2022/08/25 01:14:44;;;;;;;;;11.33;11.00;;;;;24.80;66.56;100335.56;5014550;28;45244;-75
2022/08/25 01:17:10;;;;;;;;;11.00;10.00;;;;;24.84;66.33;100330.16;5031324;28;45413;-74
2022/08/25 01:19:36;;;;;;;;;9.00;9.00;;;;;24.70;66.91;100310.09;5016177;28;45440;-75
2022/08/25 01:22:02;;;;;;;;;9.00;9.00;;;;;24.79;67.05;100307.13;5011258;28;45462;-74
2022/08/25 01:24:55;;;;;;;;;8.33;8.00;;;;;24.70;66.80;100288.72;5011558;28;45477;-74
2022/08/25 01:27:20;;;;;;;;;10.00;9.33;;;;;24.63;66.84;100271.16;5012035;28;45471;-74
2022/08/25 01:29:46;;;;;;;;;7.33;7.33;;;;;24.59;67.27;100272.16;5016681;28;45965;-76
2022/08/25 01:32:13;;;;;;;;;6.00;6.00;;;;;24.52;67.17;100271.50;5019341;28;45561;-75
2022/08/25 01:34:42;;;;;;;;;7.33;7.00;;;;;24.50;67.39;100265.31;5017951;28;45575;-76
2022/08/25 01:37:11;;;;;;;;;9.00;7.33;;;;;24.49;67.34;100273.34;5037179;28;45553;-74
2022/08/25 01:39:37;;;;;;;;;7.00;7.00;;;;;24.45;67.93;100293.06;5014565;28;45552;-75
2022/08/25 01:42:05;;;;;;;;;9.00;8.00;;;;;24.40;68.20;100287.88;5016463;28;45477;-77
2022/08/25 01:44:32;;;;;;;;;7.00;6.67;;;;;24.35;68.36;100277.34;5024385;28;45485;-74
2022/08/25 01:46:58;;;;;;;;;9.33;8.00;;;;;24.31;67.87;100274.81;5010043;28;45249;-75
2022/08/25 01:49:23;;;;;;;;;9.00;9.00;;;;;24.22;68.16;100266.16;5018912;28;45562;-75
2022/08/25 01:52:01;;;;;;;;;7.00;6.33;;;;;24.16;68.46;100261.00;5025345;28;47829;-75
2022/08/25 01:54:26;;;;;;;;;11.33;9.00;;;;;24.06;69.36;100253.34;5019522;28;45533;-74
2022/08/25 01:56:52;;;;;;;;;8.67;8.33;;;;;24.10;69.55;100260.34;5017705;28;45416;-74
2022/08/25 01:59:19;;;;;;;;;11.67;11.00;;;;;24.03;69.40;100259.63;5015970;28;45685;-74
2022/08/25 02:01:45;;;;;;;;;10.33;10.33;;;;;24.15;70.01;100271.72;5029430;28;45396;-75
2022/08/25 02:04:11;;;;;;;;;11.67;11.00;;;;;23.92;70.17;100243.97;5017412;28;45470;-73
2022/08/25 02:06:37;;;;;;;;;8.33;8.33;;;;;23.91;69.90;100250.19;5014204;28;45510;-74
2022/08/25 02:09:10;;;;;;;;;12.67;10.00;;;;;23.96;70.66;100260.75;5017441;28;45533;-74
2022/08/25 02:11:38;;;;;;;;;9.67;8.33;;;;;23.70;70.42;100233.03;5017623;28;45610;-74
2022/08/25 02:14:04;;;;;;;;;5.00;4.00;;;;;23.65;70.79;100229.59;5008602;28;45557;-74
2022/08/25 02:16:33;;;;;;;;;10.00;8.67;;;;;23.66;70.21;100223.38;5015622;28;45743;-77
2022/08/25 02:18:59;;;;;;;;;6.67;6.33;;;;;23.55;70.91;100201.47;5018512;28;45554;-76
2022/08/25 02:21:26;;;;;;;;;8.33;7.33;;;;;23.57;70.77;100213.81;5010219;28;46261;-75
2022/08/25 02:23:52;;;;;;;;;10.00;9.33;;;;;23.59;70.37;100230.66;5007237;28;45410;-74
2022/08/25 02:26:18;;;;;;;;;10.33;9.33;;;;;23.69;70.40;100244.59;5015064;28;45490;-74
2022/08/25 02:28:49;;;;;;;;;10.00;8.67;;;;;23.76;70.55;100261.31;5018268;28;45626;-73
2022/08/25 02:31:17;;;;;;;;;12.00;11.33;;;;;23.78;70.88;100254.16;5014998;28;45598;-74
2022/08/25 02:33:43;;;;;;;;;11.00;10.00;;;;;23.76;70.53;100255.97;5012193;28;45403;-73
2022/08/25 02:36:09;;;;;;;;;9.33;9.00;;;;;23.63;70.79;100235.00;5021737;28;45430;-74
2022/08/25 02:38:35;;;;;;;;;8.33;8.33;;;;;23.76;70.89;100256.84;5017039;28;45534;-74
2022/08/25 02:41:11;;;;;;;;;9.00;9.00;;;;;22.92;70.45;100115.25;5017812;28;45517;-74
2022/08/25 02:43:37;;;;;;;;;8.00;8.00;;;;;23.71;70.73;100261.41;5014664;28;45546;-74
2022/08/25 02:46:03;;;;;;;;;6.67;6.33;;;;;23.53;71.09;100235.28;5012270;28;45414;-75
2022/08/25 02:48:29;;;;;;;;;9.00;9.00;;;;;23.52;71.27;100245.09;5018638;28;45406;-75
2022/08/25 02:50:59;;;;;;;;;6.67;6.67;;;;;23.58;71.56;100260.91;5010737;28;45798;-76
2022/08/25 02:53:27;;;;;;;;;9.33;8.67;;;;;23.38;72.09;100236.63;5016755;28;45505;-76
2022/08/25 02:55:52;;;;;;;;;8.00;8.00;;;;;23.39;72.54;100257.88;5022351;28;45565;-74
2022/08/25 02:58:18;;;;;;;;;11.00;10.33;;;;;23.33;72.05;100266.03;5013455;28;45372;-75
2022/08/25 03:00:46;;;;;;;;;10.00;9.00;;;;;23.49;72.27;100287.81;5018206;28;45429;-76
2022/08/25 03:03:12;;;;;;;;;10.67;8.67;;;;;23.43;72.06;100272.88;5017529;28;45445;-73
2022/08/25 03:05:37;;;;;;;;;11.67;8.67;;;;;23.54;71.51;100280.59;5006485;28;45556;-74
2022/08/25 03:08:05;;;;;;;;;8.67;7.67;;;;;23.36;71.50;100246.44;5018061;28;45517;-74
2022/08/25 03:10:32;;;;;;;;;12.00;9.33;;;;;23.54;71.66;100290.38;5016599;28;46361;-74
2022/08/25 03:12:57;;;;;;;;;10.00;9.00;;;;;23.50;71.56;100297.59;5010484;28;45445;-76
2022/08/25 03:15:26;;;;;;;;;9.33;8.33;;;;;23.30;71.79;100262.56;5024782;28;45431;-74
2022/08/25 03:17:53;;;;;;;;;8.00;7.00;;;;;23.45;71.08;100279.97;5014747;28;45570;-76
2022/08/25 03:20:20;;;;;;;;;7.00;7.00;;;;;23.31;71.60;100256.34;5008839;28;46007;-75
2022/08/25 03:22:46;;;;;;;;;7.00;7.00;;;;;23.37;71.44;100264.16;5008975;28;45747;-74
2022/08/25 03:27:55;;;;;;;;;7.33;7.33;;;;;23.24;71.67;100242.31;5017867;28;45487;-76
2022/08/25 03:30:21;;;;;;;;;8.33;8.00;;;;;23.12;71.86;100229.31;5018208;28;46014;-74
2022/08/25 03:32:47;;;;;;;;;9.33;7.67;;;;;23.09;72.25;100235.59;5017289;28;45313;-74
2022/08/25 03:35:13;;;;;;;;;6.33;6.33;;;;;23.15;72.05;100272.72;5013050;28;46064;-74
2022/08/25 03:37:39;;;;;;;;;8.00;8.00;;;;;23.17;72.74;100292.22;5006794;28;45401;-73
2022/08/25 03:40:09;;;;;;;;;8.00;7.67;;;;;23.14;72.11;100289.66;5017486;28;46180;-75
2022/08/25 03:42:35;;;;;;;;;10.33;7.00;;;;;23.19;72.72;100303.72;5016866;28;45550;-75
2022/08/25 03:45:03;;;;;;;;;10.00;8.33;;;;;23.03;72.97;100273.06;5018392;28;45412;-74
2022/08/25 03:47:30;;;;;;;;;8.00;7.67;;;;;23.20;72.11;100300.16;4998472;28;45537;-74
2022/08/25 03:49:56;;;;;;;;;8.33;7.67;;;;;23.23;71.90;100293.84;5014862;28;45324;-75
2022/08/25 03:52:21;;;;;;;;;8.67;8.00;;;;;23.01;72.29;100253.53;5014599;28;45529;-74
2022/08/25 03:54:48;;;;;;;;;8.33;7.33;;;;;23.15;71.94;100262.06;5030966;28;45475;-74
2022/08/25 03:57:14;;;;;;;;;7.00;7.00;;;;;23.16;71.88;100254.97;5014780;28;45467;-75
2022/08/25 03:59:39;;;;;;;;;8.67;8.00;;;;;23.25;71.66;100254.72;5014022;28;45404;-74
2022/08/25 04:02:05;;;;;;;;;8.00;7.00;;;;;23.31;70.82;100265.22;5030734;28;45578;-75
2022/08/25 04:04:32;;;;;;;;;7.33;6.67;;;;;23.23;71.18;100272.53;5015105;28;45554;-75
2022/08/25 04:06:58;;;;;;;;;5.67;5.67;;;;;23.21;71.50;100261.03;5013384;28;45491;-76
2022/08/25 04:09:24;;;;;;;;;6.00;6.00;;;;;23.16;71.28;100266.50;5014859;28;46011;-75
2022/08/25 04:11:50;;;;;;;;;8.00;7.67;;;;;23.15;71.27;100246.09;5015980;28;45379;-74
2022/08/25 04:14:16;;;;;;;;;8.00;7.00;;;;;23.26;71.13;100242.25;5014434;28;45491;-75
2022/08/25 04:16:42;;;;;;;;;9.00;8.00;;;;;23.19;71.48;100220.25;5016162;28;45481;-75
2022/08/25 04:19:09;;;;;;;;;6.00;6.00;;;;;23.32;71.26;100242.13;5014205;28;46699;-74
2022/08/25 04:21:36;;;;;;;;;9.00;7.67;;;;;23.27;71.77;100244.88;5014898;28;47006;-74
2022/08/25 04:24:02;;;;;;;;;6.00;6.00;;;;;23.22;71.82;100238.81;5015299;28;45608;-75
2022/08/25 04:26:31;;;;;;;;;8.67;8.67;;;;;23.30;71.91;100238.59;5015504;28;45704;-73
2022/08/25 04:28:59;;;;;;;;;8.00;7.67;;;;;23.40;72.07;100254.31;5010923;28;46572;-76
2022/08/25 04:31:27;;;;;;;;;9.67;8.00;;;;;23.36;72.37;100249.97;5028174;28;45493;-74
2022/08/25 04:33:53;;;;;;;;;7.00;7.00;;;;;23.36;71.78;100235.78;5015680;28;45398;-74
2022/08/25 04:36:21;;;;;;;;;8.00;7.00;;;;;23.31;72.29;100205.72;5030848;28;45652;-73
2022/08/25 04:38:48;;;;;;;;;7.67;7.67;;;;;23.09;72.55;100176.97;5014649;28;45822;-74
2022/08/25 04:41:16;;;;;;;;;7.00;7.00;;;;;22.97;72.73;100163.97;5014785;28;46004;-75
2022/08/25 04:43:43;;;;;;;;;8.00;7.00;;;;;23.00;73.05;100190.53;5015649;28;45477;-75
2022/08/25 04:46:12;;;;;;;;;7.00;6.00;;;;;23.05;73.76;100212.63;5015660;28;45709;-75
2022/08/25 04:48:38;;;;;;;;;10.00;9.00;;;;;22.91;74.08;100194.31;5030670;28;46350;-74
2022/08/25 04:51:09;;;;;;;;;8.00;8.00;;;;;23.05;74.01;100207.28;5030108;28;45754;-76
2022/08/25 04:53:36;;;;;;;;;9.00;8.00;;;;;23.07;74.39;100204.59;5015028;28;45538;-75
2022/08/25 04:56:06;;;;;;;;;7.33;6.00;;;;;22.95;73.97;100181.78;5015529;28;45516;-75
2022/08/25 04:58:32;;;;;;;;;9.00;8.00;;;;;22.88;75.41;100167.78;5030353;28;46648;-74
2022/08/25 05:01:06;;;;;;;;;9.00;9.00;;;;;22.84;74.80;100164.31;5016307;28;45597;-73
2022/08/25 05:03:32;;;;;;;;;7.67;7.00;;;;;22.87;74.73;100194.44;5011317;28;45427;-74
2022/08/25 05:05:57;;;;;;;;;8.67;8.00;;;;;22.75;75.00;100184.97;5015266;28;45742;-75
2022/08/25 05:08:23;;;;;;;;;15.67;14.00;;;;;22.82;75.60;100206.09;5013085;28;46539;-74
2022/08/25 05:10:49;;;;;;;;;8.67;8.67;;;;;22.95;74.98;100221.75;5014253;28;45423;-74
2022/08/25 05:13:15;;;;;;;;;9.33;7.67;;;;;22.70;74.33;100186.88;5014895;28;45575;-74
2022/08/25 05:15:49;;;;;;;;;10.00;8.67;;;;;22.91;74.84;100231.59;5012890;28;45466;-73
2022/08/25 05:18:16;;;;;;;;;11.00;9.00;;;;;22.97;75.76;100238.56;5014458;28;45630;-74
2022/08/25 05:20:42;;;;;;;;;8.33;8.00;;;;;22.89;75.47;100219.25;5010428;28;45509;-74
2022/08/25 05:23:07;;;;;;;;;7.00;7.00;;;;;22.72;75.28;100217.91;5012875;28;45642;-74
2022/08/25 05:25:33;;;;;;;;;10.00;9.33;;;;;22.75;75.84;100239.09;5014385;28;45790;-74
2022/08/25 05:27:59;;;;;;;;;8.00;7.00;;;;;22.80;75.99;100246.97;5012052;28;45509;-73
2022/08/25 05:30:25;;;;;;;;;9.67;7.67;;;;;22.76;75.62;100247.97;5012833;28;45517;-74
2022/08/25 05:32:50;;;;;;;;;8.33;8.33;;;;;22.67;76.35;100233.09;5010078;28;45567;-74
2022/08/25 05:35:18;;;;;;;;;10.00;10.00;;;;;22.60;76.53;100231.50;5013776;28;45634;-73
2022/08/25 05:37:43;;;;;;;;;9.33;8.00;;;;;22.58;76.89;100241.31;5013931;28;46398;-74
2022/08/25 05:40:09;;;;;;;;;11.00;9.00;;;;;21.99;76.45;100144.22;5014249;28;45406;-74
2022/08/25 05:42:35;;;;;;;;;10.00;9.00;;;;;22.48;76.66;100237.13;5013112;28;46484;-75
2022/08/25 05:45:02;;;;;;;;;11.00;11.00;;;;;22.51;76.23;100250.38;5015996;28;45701;-74
2022/08/25 05:47:28;;;;;;;;;8.67;8.00;;;;;22.58;75.78;100275.91;5013889;28;45458;-76
2022/08/25 05:49:53;;;;;;;;;6.00;5.33;;;;;22.41;75.13;100242.59;5015425;28;45472;-74
2022/08/25 05:52:19;;;;;;;;;10.33;9.33;;;;;22.57;76.37;100284.81;5014076;28;45588;-74
2022/08/25 05:54:44;;;;;;;;;10.00;9.33;;;;;22.62;75.75;100274.91;5015759;28;45661;-74
2022/08/25 05:57:10;;;;;;;;;8.00;7.33;;;;;22.35;77.08;100258.69;5011212;28;46123;-74
2022/08/25 05:59:36;;;;;;;;;8.00;7.00;;;;;22.55;76.53;100295.50;5007235;28;45571;-75
2022/08/25 06:04:45;;;;;;;;;17.67;16.33;;;;;22.64;75.65;100305.03;5001857;28;45441;-75
2022/08/25 06:07:12;;;;;;;;;9.67;9.00;;;;;22.66;75.62;100303.25;5013950;28;45703;-75
2022/08/25 06:09:41;;;;;;;;;9.00;8.33;;;;;22.75;75.10;100324.31;5014024;28;45410;-75
2022/08/25 06:12:07;;;;;;;;;8.67;7.00;;;;;22.78;75.29;100321.59;5015345;28;45436;-75
2022/08/25 06:14:33;;;;;;;;;14.67;14.33;;;;;22.72;75.36;100310.19;5021480;28;45548;-73
2022/08/25 06:16:59;;;;;;;;;10.00;9.67;;;;;22.74;74.95;100308.38;5030764;28;47091;-74
2022/08/25 06:19:26;;;;;;;;;9.00;8.00;;;;;22.84;75.78;100328.56;5002799;28;45555;-74
2022/08/25 06:21:56;;;;;;;;;7.00;6.00;;;;;22.70;75.91;100304.03;5019059;28;45313;-74
2022/08/25 06:24:23;;;;;;;;;8.00;8.00;;;;;22.68;75.79;100301.44;5019114;28;45444;-74
2022/08/25 06:26:49;;;;;;;;;9.00;9.00;;;;;22.99;75.03;100337.97;5017165;28;45538;-75
2022/08/25 06:29:16;;;;;;;;;8.00;5.33;;;;;23.08;74.93;100332.44;5017004;28;45658;-75
2022/08/25 06:31:42;;;;;;;;;8.00;7.33;;;;;23.14;75.01;100342.94;5016640;28;46017;-74
2022/08/25 06:34:09;;;;;;;;;8.67;8.00;;;;;23.14;74.99;100350.03;5017386;28;45667;-75
2022/08/25 06:36:35;;;;;;;;;9.33;8.33;;;;;23.08;75.29;100334.22;5017832;28;46100;-76
2022/08/25 06:39:00;;;;;;;;;7.00;5.00;;;;;23.15;74.86;100338.47;5018759;28;45525;-74
2022/08/25 06:41:26;;;;;;;;;7.67;6.33;;;;;23.15;74.70;100335.81;5018678;28;45494;-74
2022/08/25 06:43:52;;;;;;;;;6.67;6.33;;;;;23.15;74.80;100334.03;5016741;28;45505;-82
2022/08/25 06:46:21;;;;;;;;;6.67;6.67;;;;;23.29;75.53;100364.78;5017754;28;45548;-75
2022/08/25 06:48:47;;;;;;;;;10.00;6.00;;;;;23.31;75.52;100373.63;5018283;28;45463;-75
2022/08/25 06:51:18;;;;;;;;;10.00;9.33;;;;;23.27;75.59;100378.13;4998122;28;45408;-77
2022/08/25 06:53:45;;;;;;;;;7.67;6.00;;;;;23.11;75.17;100353.66;5021518;28;45510;-80
2022/08/25 06:56:11;;;;;;;;;9.00;8.00;;;;;23.38;75.12;100386.75;5015686;28;46271;-78
2022/08/25 06:58:38;;;;;;;;;7.00;6.00;;;;;23.38;75.29;100383.22;5015198;28;45485;-76
2022/08/25 07:01:10;;;;;;;;;5.67;4.33;;;;;23.33;74.74;100369.13;5017196;28;45614;-79
2022/08/25 07:03:36;;;;;;;;;7.33;5.00;;;;;23.59;74.29;100392.44;5017054;28;45547;-77
2022/08/25 07:06:02;;;;;;;;;5.33;5.00;;;;;23.52;73.89;100370.41;5014980;28;45763;-75
2022/08/25 07:08:27;;;;;;;;;4.67;4.00;;;;;23.60;73.49;100371.06;5017303;28;45462;-79
2022/08/25 07:10:54;;;;;;;;;5.00;5.00;;;;;23.66;73.39;100371.84;5016571;28;45441;-78
2022/08/25 07:13:19;;;;;;;;;8.00;6.00;;;;;23.66;73.24;100369.16;5015804;28;45450;-79
2022/08/25 07:15:45;;;;;;;;;7.00;5.00;;;;;23.49;73.31;100343.81;5016098;28;45435;-77
2022/08/25 07:18:11;;;;;;;;;7.33;6.00;;;;;23.88;73.15;100405.03;5014964;28;45617;-76
2022/08/25 07:20:38;;;;;;;;;5.00;4.00;;;;;23.84;72.47;100386.50;5014033;28;45787;-79
2022/08/25 07:23:05;;;;;;;;;6.00;4.33;;;;;23.92;72.66;100397.81;5016743;28;45610;-79
2022/08/25 07:25:34;;;;;;;;;6.33;5.00;;;;;24.10;73.02;100425.78;5014357;28;45501;-76
2022/08/25 07:28:00;;;;;;;;;5.00;4.00;;;;;23.92;72.55;100373.81;5015182;28;45594;-76
2022/08/25 07:30:27;;;;;;;;;5.67;4.00;;;;;24.12;72.20;100405.28;5016393;28;45481;-74
2022/08/25 07:32:52;;;;;;;;;4.00;3.00;;;;;24.19;71.94;100417.50;5016704;28;45665;-74
2022/08/25 07:35:22;;;;;;;;;4.00;4.00;;;;;24.13;71.73;100425.69;5014571;28;46693;-75
2022/08/25 07:37:51;;;;;;;;;3.33;3.00;;;;;24.06;71.35;100395.66;5014467;28;45463;-79
2022/08/25 07:40:23;;;;;;;;;3.00;2.00;;;;;24.08;71.67;100398.28;5015595;28;45520;-75
2022/08/25 07:42:50;;;;;;;;;5.67;5.00;;;;;24.27;71.35;100415.50;5009515;28;45507;-79
2022/08/25 07:45:16;;;;;;;;;4.00;3.00;;;;;24.37;71.44;100421.44;5015687;28;45529;-78
2022/08/25 07:47:42;;;;;;;;;5.00;2.00;;;;;24.24;70.69;100396.91;5014471;28;45574;-75
2022/08/25 07:50:11;;;;;;;;;4.00;2.00;;;;;24.49;71.10;100426.44;5031899;28;46119;-77
2022/08/25 07:52:38;;;;;;;;;3.33;2.00;;;;;24.46;70.74;100420.31;5015366;28;45553;-76
2022/08/25 07:55:05;;;;;;;;;4.00;1.33;;;;;24.51;70.50;100418.41;5031532;28;47041;-77
2022/08/25 07:57:31;;;;;;;;;2.67;2.00;;;;;24.55;70.31;100420.06;5031457;28;45468;-76
2022/08/25 07:59:57;;;;;;;;;4.67;3.00;;;;;24.42;70.61;100396.38;5016809;28;45329;-76
2022/08/25 08:02:23;;;;;;;;;2.67;2.33;;;;;24.66;70.54;100425.97;5015964;28;45644;-77
2022/08/25 08:04:51;;;;;;;;;3.33;2.00;;;;;24.80;70.38;100442.44;5016500;28;45471;-76
2022/08/25 08:07:23;;;;;;;;;2.00;1.00;;;;;24.66;69.98;100411.75;5028220;28;45521;-80
2022/08/25 08:09:50;;;;;;;;;2.00;2.00;;;;;24.64;69.32;100408.25;5016756;28;45356;-76
2022/08/25 08:12:16;;;;;;;;;2.33;2.33;;;;;24.74;69.32;100421.25;5017182;28;45441;-77
2022/08/25 08:14:42;;;;;;;;;4.67;2.33;;;;;24.89;69.84;100448.41;5016257;28;45716;-77
2022/08/25 08:17:09;;;;;;;;;6.00;4.00;;;;;24.84;69.00;100445.03;5016011;28;45244;-78
2022/08/25 08:19:35;;;;;;;;;3.00;2.00;;;;;24.77;68.92;100426.53;5014053;28;45703;-77
2022/08/25 08:22:03;;;;;;;;;3.67;2.33;;;;;25.02;68.81;100457.81;5016180;28;45470;-75
2022/08/25 08:24:29;;;;;;;;;2.33;1.33;;;;;25.03;68.57;100451.56;5014535;28;46185;-79
2022/08/25 08:26:55;;;;;;;;;3.33;3.00;;;;;25.14;68.36;100469.91;5012870;28;45544;-78
2022/08/25 08:29:21;;;;;;;;;3.67;2.67;;;;;25.07;67.71;100437.19;5015030;28;45388;-76
2022/08/25 08:31:47;;;;;;;;;4.67;1.67;;;;;25.26;67.21;100455.31;5017010;28;45498;-78
2022/08/25 08:34:13;;;;;;;;;4.00;3.00;;;;;25.35;66.63;100461.25;5015636;28;46755;-79
2022/08/25 08:36:39;;;;;;;;;3.00;2.00;;;;;25.59;66.63;100480.09;5011962;28;45447;-78
2022/08/25 08:39:06;;;;;;;;;4.67;3.00;;;;;25.64;65.98;100470.09;5004087;28;45352;-77
2022/08/25 08:42:16;;;;;;;;;1.67;1.00;;;;;25.78;65.93;100486.59;5020297;28;45565;-78
2022/08/25 08:44:45;;;;;;;;;2.00;2.00;;;;;25.82;64.38;100490.00;4993790;28;45646;-75
2022/08/25 08:47:26;;;;;;;;;2.00;1.00;;;;;25.67;64.29;100496.75;5030624;28;45368;-73
2022/08/25 08:50:03;;;;;;;;;3.00;2.67;;;;;25.65;64.09;100495.06;5015147;28;45260;-85
2022/08/25 08:52:42;;;;;;;;;2.00;2.00;;;;;25.60;64.29;100496.09;5031064;28;45654;-79
2022/08/25 08:55:31;;;;;;;;;4.33;4.33;;;;;25.53;64.19;100497.22;5015551;28;45475;-67
2022/08/25 08:58:01;;;;;;;;;2.33;1.00;;;;;25.73;63.08;100507.25;5013567;28;45655;-70
2022/08/25 09:00:30;;;;;;;;;1.67;1.00;;;;;26.02;62.64;100501.88;5015534;28;45487;-69
2022/08/25 09:03:04;;;;;;;;;2.00;1.67;;;;;26.03;62.99;100506.31;5015698;28;45532;-69
2022/08/25 09:05:34;;;;;;;;;0.67;0.00;;;;;26.28;62.24;100488.44;5012512;28;46155;-70
2022/08/25 09:08:04;;;;;;;;;1.00;0.00;;;;;26.68;61.28;100508.44;5030642;28;45400;-70
2022/08/25 09:11:01;;;;;;;;;2.67;1.00;;;;;26.81;60.49;100516.88;5014841;28;46048;-71
2022/08/25 09:13:37;;;;;;;;;3.33;2.00;;;;;26.56;61.10;100509.72;5015130;28;45427;-70
2022/08/25 09:19:37;;;;;;;;;3.33;2.00;;;;;26.42;61.77;100529.91;5015196;28;45259;-71
2022/08/25 09:22:32;;;;;;;;;3.00;2.67;;;;;26.29;61.48;100533.03;5014903;28;45629;-69
2022/08/25 09:25:15;;;;;;;;;9.33;8.00;;;;;26.07;61.77;100513.28;5015304;28;45439;-71
2022/08/25 09:27:52;;;;;;;;;3.00;3.00;;;;;26.13;61.28;100539.84;5015054;28;46484;-72
2022/08/25 09:30:20;;;;;;;;;2.00;2.00;;;;;26.10;61.65;100539.94;5005675;28;45540;-67
2022/08/25 09:33:00;;;;;;;;;3.00;2.67;;;;;26.12;61.43;100546.13;5010775;28;45723;-66
2022/08/25 09:35:30;;;;;;;;;5.00;4.00;;;;;26.18;61.28;100540.56;5014308;28;45902;-67
2022/08/25 09:38:01;;;;;;;;;3.33;2.67;;;;;26.14;60.76;100523.75;5013375;28;45528;-66
2022/08/25 09:40:34;;;;;;;;;2.00;2.00;;;;;26.29;60.13;100526.81;5013931;28;45829;-66
2022/08/25 09:43:04;;;;;;;;;2.00;2.00;;;;;26.45;60.36;100529.81;5013264;28;45648;-68
2022/08/25 09:45:42;;;;;;;;;3.67;3.00;;;;;26.59;59.63;100533.75;5019281;28;45804;-66
2022/08/25 09:48:28;;;;;;;;;3.00;3.00;;;;;26.75;58.98;100534.06;5013490;28;46066;-65
2022/08/25 09:51:01;;;;;;;;;8.00;8.00;;;;;26.92;58.82;100535.25;5018061;28;45782;-66
2022/08/25 09:53:28;;;;;;;;;6.00;5.67;;;;;27.16;59.10;100552.19;5031408;28;45327;-68
2022/08/25 09:56:03;;;;;;;;;6.00;5.00;;;;;27.00;58.47;100549.22;5016807;28;45440;-67
2022/08/25 09:58:29;;;;;;;;;3.00;2.00;;;;;27.09;58.31;100545.31;5013873;28;46302;-67
2022/08/25 10:01:17;;;;;;;;;3.00;2.67;;;;;27.42;58.37;100539.59;5031446;28;45651;-67
2022/08/25 10:03:57;;;;;;;;;5.00;3.00;;;;;27.68;57.03;100519.75;5016265;28;45920;-69
2022/08/25 10:06:26;;;;;;;;;6.00;4.33;;;;;28.05;57.21;100537.00;5016210;28;45638;-67
2022/08/25 10:09:03;;;;;;;;;3.33;3.33;;;;;28.54;56.51;100538.44;5013031;28;46702;-67
2022/08/25 10:11:37;;;;;;;;;4.00;3.33;;;;;28.96;54.16;100540.09;5012476;28;45517;-67
2022/08/25 10:14:16;;;;;;;;;8.33;5.67;;;;;30.03;53.69;100541.25;5015599;28;45640;-67
2022/08/25 10:16:42;;;;;;;;;5.33;3.00;;;;;31.24;49.68;100535.75;5015312;28;45364;-68
2022/08/25 10:19:23;;;;;;;;;6.67;6.33;;;;;30.85;50.20;100516.25;5015231;28;45595;-68
2022/08/25 10:22:09;;;;;;;;;4.00;4.00;;;;;30.60;50.00;100529.31;5015837;28;45399;-69
2022/08/25 10:24:36;;;;;;;;;3.00;3.00;;;;;30.59;50.78;100531.16;5015200;28;45646;-67
2022/08/25 10:27:33;;;;;;;;;5.00;4.00;;;;;30.50;50.45;100534.34;5015736;28;45450;-67
2022/08/25 10:30:04;;;;;;;;;3.00;3.00;;;;;30.27;50.42;100531.03;5005793;28;46423;-67
2022/08/25 10:32:56;;;;;;;;;4.67;4.67;;;;;30.01;51.05;100515.34;5011186;28;45340;-68
2022/08/25 10:35:27;;;;;;;;;4.33;4.33;;;;;30.00;51.11;100536.00;5014089;28;45474;-67
2022/08/25 10:37:59;;;;;;;;;3.00;3.00;;;;;29.94;49.84;100522.84;5016449;28;45411;-67
2022/08/25 10:40:46;;;;;;;;;4.67;4.00;;;;;29.85;49.75;100520.66;5012875;28;45919;-66
2022/08/25 10:43:31;;;;;;;;;6.00;4.33;;;;;30.12;49.59;100523.72;5013817;28;45671;-66
2022/08/25 10:46:25;;;;;;;;;4.00;3.33;;;;;30.19;48.85;100513.53;5013836;28;45467;-66
2022/08/25 10:49:15;;;;;;;;;11.33;7.33;;;;;30.55;47.55;100507.16;5014464;28;45381;-67
2022/08/25 10:51:46;;;;;;;;;4.67;4.33;;;;;31.67;47.08;100520.66;5015692;28;45387;-67
2022/08/25 10:54:36;;;;;;;;;7.00;7.00;;;;;31.61;46.23;100518.31;5013804;28;45384;-67
2022/08/25 10:57:06;;;;;;;;;5.00;5.00;;;;;30.98;46.07;100508.41;5011468;28;45479;-67
2022/08/25 10:59:50;;;;;;;;;8.00;7.00;;;;;30.67;46.61;100514.56;5016139;28;45595;-67
2022/08/25 11:02:46;;;;;;;;;7.00;7.00;;;;;30.87;47.14;100505.38;5011426;28;45816;-70
2022/08/25 11:05:31;;;;;;;;;6.33;5.00;;;;;31.30;46.38;100497.63;5014977;28;45511;-68
2022/08/25 11:08:11;;;;;;;;;3.67;2.67;;;;;31.29;44.98;100490.47;5015845;28;45451;-67
2022/08/25 11:10:43;;;;;;;;;5.00;4.67;;;;;30.92;45.99;100492.56;5016590;28;45454;-67
2022/08/25 11:13:16;;;;;;;;;7.00;6.33;;;;;30.86;47.64;100484.78;5015938;28;45749;-67
2022/08/25 11:16:13;;;;;;;;;5.33;4.33;;;;;30.99;47.14;100485.00;5015976;28;45332;-68
2022/08/25 11:18:46;;;;;;;;;6.00;5.00;;;;;30.18;47.61;100450.66;5001502;28;47245;-68
2022/08/25 11:21:19;;;;;;;;;6.00;6.00;;;;;30.29;47.50;100469.81;5011842;28;45651;-67
2022/08/25 11:24:08;;;;;;;;;4.00;4.00;;;;;30.90;47.47;100484.56;5030917;28;47028;-67
2022/08/25 11:26:36;;;;;;;;;6.33;5.00;;;;;31.22;46.89;100471.06;5002143;28;45214;-67
2022/08/25 11:29:13;;;;;;;;;6.00;6.00;;;;;31.58;46.57;100466.34;5016489;28;45395;-67
2022/08/25 11:31:44;;;;;;;;;6.00;5.00;;;;;31.80;46.02;100457.84;5015379;28;45650;-67
2022/08/25 11:34:14;;;;;;;;;5.33;4.67;;;;;32.02;45.44;100470.94;5001697;28;46151;-68
2022/08/25 11:36:42;;;;;;;;;5.00;5.00;;;;;32.15;45.12;100471.03;5012328;28;45552;-67
2022/08/25 11:39:55;;;;;;;;;3.67;3.67;;;;;32.39;44.74;100464.13;5025518;28;45485;-67
2022/08/25 11:43:15;;;;;;;;;7.67;6.67;;;;;32.38;44.88;100466.94;5005376;28;45339;-68